Time;durP1;ratioP1;P1;durP2;ratioP2;P2;SDS_P1;SDS_P2;PMS_P1;PMS_P2;Temp;Humidity;BMP_temperature;BMP_pressure;BME280_temperature;BME280_humidity;BME280_pressure;Samples;Min_cycle;Max_cycle;Signal;HPM_P1;HPM_P2
2023/01/18 00:02:09;;;;;;;8.73;4.70;;;7.60;50.40;;;;;;5048315;28;20517;-89
2023/01/18 00:04:36;;;;;;;6.60;3.93;;;7.60;50.60;;;;;;5043227;28;20475;-88
2023/01/18 00:07:04;;;;;;;4.33;3.43;;;7.50;50.70;;;;;;5081669;28;20452;-88
2023/01/18 00:09:31;;;;;;;6.27;4.10;;;7.50;50.10;;;;;;5062171;28;20454;-86
2023/01/18 00:11:58;;;;;;;7.10;4.70;;;7.50;49.50;;;;;;5042176;28;20460;-88
2023/01/18 00:14:24;;;;;;;7.60;4.40;;;7.50;49.70;;;;;;5030249;28;20496;-89
2023/01/18 00:16:51;;;;;;;4.40;3.43;;;7.40;49.00;;;;;;5045762;28;20483;-88
2023/01/18 00:19:18;;;;;;;5.77;3.63;;;7.40;49.40;;;;;;5081554;28;20447;-88
2023/01/18 00:21:45;;;;;;;5.63;3.77;;;7.50;50.00;;;;;;5028527;28;20485;-90
2023/01/18 00:24:14;;;;;;;7.40;3.70;;;7.60;50.40;;;;;;5025469;28;20444;-88
2023/01/18 00:26:43;;;;;;;8.70;3.87;;;7.60;50.30;;;;;;5027205;28;20547;-88
2023/01/18 00:29:10;;;;;;;5.37;3.27;;;7.60;50.40;;;;;;5047173;28;20440;-88
2023/01/18 00:31:37;;;;;;;4.37;3.80;;;7.60;49.80;;;;;;5043229;28;20483;-88
2023/01/18 00:34:04;;;;;;;7.50;4.00;;;7.60;49.90;;;;;;5035422;28;20853;-88
2023/01/18 00:36:31;;;;;;;4.93;3.20;;;7.50;49.90;;;;;;5028365;28;20451;-88
2023/01/18 00:38:59;;;;;;;6.57;3.80;;;7.40;49.80;;;;;;5043854;28;20542;-89
2023/01/18 00:41:27;;;;;;;7.70;3.80;;;7.40;50.20;;;;;;5041748;28;20509;-87
2023/01/18 00:43:54;;;;;;;6.27;3.03;;;7.40;50.40;;;;;;5046431;28;20459;-89
2023/01/18 00:46:23;;;;;;;6.37;3.30;;;7.40;50.20;;;;;;5030104;28;20495;-88
2023/01/18 00:48:51;;;;;;;4.83;3.47;;;7.30;50.00;;;;;;5022875;28;20945;-88
2023/01/18 00:51:20;;;;;;;4.00;3.10;;;7.30;50.20;;;;;;5046944;28;21016;-88
2023/01/18 00:53:47;;;;;;;5.57;3.90;;;7.30;50.40;;;;;;5022248;28;21004;-87
2023/01/18 00:56:18;;;;;;;5.23;2.73;;;7.20;50.20;;;;;;5045108;28;20436;-88
2023/01/18 00:58:47;;;;;;;4.60;3.07;;;7.20;50.70;;;;;;5020566;28;20456;-89
2023/01/18 01:01:15;;;;;;;4.77;3.60;;;7.20;50.00;;;;;;5036227;28;20478;-88
2023/01/18 01:06:46;;;;;;;6.73;3.03;;;7.20;50.60;;;;;;5046251;28;20475;-88
2023/01/18 01:09:16;;;;;;;3.37;2.30;;;7.20;50.70;;;;;;5061200;28;20564;-88
2023/01/18 01:12:31;;;;;;;5.50;2.97;;;7.20;50.60;;;;;;5044735;28;20980;-88
2023/01/18 01:28:16;;;;;;;7.73;4.47;;;7.50;51.30;;;;;;5024466;28;20436;-89
2023/01/18 01:30:45;;;;;;;7.03;3.57;;;7.50;51.10;;;;;;5043700;28;20468;-90
2023/01/18 01:33:12;;;;;;;6.90;3.37;;;7.60;51.20;;;;;;5044768;28;20459;-88
2023/01/18 01:35:39;;;;;;;4.47;3.27;;;7.60;50.70;;;;;;5027189;28;20474;-89
2023/01/18 01:38:06;;;;;;;6.90;4.17;;;7.60;50.50;;;;;;5029574;28;20807;-89
2023/01/18 01:40:33;;;;;;;4.87;3.87;;;7.50;50.60;;;;;;5053124;28;20467;-89
2023/01/18 01:43:00;;;;;;;7.73;4.37;;;7.50;49.80;;;;;;5029894;28;20447;-89
2023/01/18 01:45:30;;;;;;;6.10;3.50;;;7.30;50.30;;;;;;5028052;28;20470;-88
2023/01/18 01:47:58;;;;;;;6.80;4.47;;;7.40;51.00;;;;;;5029163;28;20436;-88
2023/01/18 01:50:28;;;;;;;7.50;4.60;;;7.50;51.40;;;;;;5044153;28;20464;-89
2023/01/18 01:52:57;;;;;;;6.73;3.70;;;7.50;51.40;;;;;;5038469;28;20464;-88
2023/01/18 01:55:29;;;;;;;6.63;3.90;;;7.50;51.50;;;;;;5027555;28;20516;-88
2023/01/18 01:57:58;;;;;;;6.47;4.00;;;7.30;50.00;;;;;;5044264;28;20471;-87
2023/01/18 02:00:25;;;;;;;9.20;4.83;;;7.40;50.70;;;;;;5052231;28;20481;-88
2023/01/18 02:02:55;;;;;;;6.80;4.30;;;7.20;51.00;;;;;;5041659;28;20963;-88
2023/01/18 02:05:24;;;;;;;6.70;4.07;;;7.20;51.60;;;;;;5048147;28;20891;-89
2023/01/18 02:07:51;;;;;;;6.80;3.43;;;6.90;51.70;;;;;;5047562;28;20444;-88
2023/01/18 02:10:18;;;;;;;6.37;3.27;;;7.00;51.70;;;;;;5083213;28;20479;-88
2023/01/18 02:12:48;;;;;;;3.87;2.67;;;7.00;51.60;;;;;;5028922;28;20968;-88
2023/01/18 02:15:15;;;;;;;2.77;2.47;;;7.10;51.70;;;;;;5049753;28;20553;-88
2023/01/18 02:18:01;;;;;;;2.97;2.40;;;7.00;51.20;;;;;;5029330;28;21029;-90
2023/01/18 02:21:02;;;;;;;5.43;2.57;;;6.90;51.00;;;;;;5022143;28;20467;-87
2023/01/18 02:23:35;;;;;;;4.00;1.83;;;6.90;51.70;;;;;;5047100;28;20455;-86
2023/01/18 02:26:33;;;;;;;3.57;2.57;;;7.00;52.30;;;;;;5044419;28;20540;-88
2023/01/18 02:29:12;;;;;;;3.20;2.63;;;6.80;52.00;;;;;;5055991;28;20459;-88
2023/01/18 02:31:49;;;;;;;2.47;2.20;;;6.70;53.50;;;;;;5025883;28;20463;-88
2023/01/18 02:34:23;;;;;;;3.27;2.50;;;6.70;53.20;;;;;;5028445;28;20447;-88
2023/01/18 02:36:57;;;;;;;15.10;3.03;;;6.90;54.30;;;;;;5063239;28;21063;-88
2023/01/18 02:39:37;;;;;;;3.30;2.50;;;6.80;53.00;;;;;;5063854;28;20479;-88
2023/01/18 02:47:41;;;;;;;9.77;5.03;;;6.40;55.00;;;;;;5030954;28;20427;-88
2023/01/18 02:50:10;;;;;;;5.00;3.47;;;6.30;56.20;;;;;;5032303;28;20467;-88
2023/01/18 02:52:45;;;;;;;6.47;3.80;;;6.30;56.50;;;;;;5045378;28;20474;-87
2023/01/18 02:55:24;;;;;;;7.67;3.53;;;6.40;56.50;;;;;;5047914;28;20431;-88
2023/01/18 02:57:52;;;;;;;7.17;3.90;;;6.30;56.70;;;;;;5041149;28;20973;-89
2023/01/18 03:00:22;;;;;;;4.80;3.07;;;6.30;57.50;;;;;;5048556;28;20490;-88
2023/01/18 03:02:50;;;;;;;5.40;3.33;;;6.40;57.50;;;;;;5051837;28;20956;-89
2023/01/18 03:05:18;;;;;;;4.80;3.47;;;6.30;57.40;;;;;;5047816;28;20976;-89
2023/01/18 03:07:53;;;;;;;5.60;4.00;;;6.20;58.00;;;;;;5028931;28;20456;-87
2023/01/18 03:10:22;;;;;;;5.33;3.53;;;6.00;58.50;;;;;;5031283;28;20469;-88
2023/01/18 03:12:57;;;;;;;7.33;4.10;;;6.30;58.40;;;;;;5044261;28;20961;-88
2023/01/18 03:15:35;;;;;;;4.30;3.10;;;6.20;58.40;;;;;;5032208;28;20444;-88
2023/01/18 03:18:07;;;;;;;5.70;4.07;;;6.40;58.30;;;;;;5031767;28;20448;-89
2023/01/18 03:20:41;;;;;;;11.40;4.43;;;6.40;58.10;;;;;;5042300;28;20468;-88
2023/01/18 03:26:01;;;;;;;4.73;3.90;;;6.60;57.50;;;;;;5030876;28;20472;-88
2023/01/18 03:34:19;;;;;;;4.63;3.87;;;6.50;57.40;;;;;;5030974;28;20498;-89
2023/01/18 03:36:48;;;;;;;7.40;3.87;;;6.40;57.50;;;;;;5029151;28;20475;-88
2023/01/18 03:39:20;;;;;;;5.47;3.97;;;6.20;57.80;;;;;;5048673;28;20439;-88
2023/01/18 03:41:51;;;;;;;9.20;4.57;;;6.30;58.10;;;;;;5020106;28;21038;-87
2023/01/18 03:44:24;;;;;;;7.77;4.60;;;6.30;58.30;;;;;;5031402;28;20451;-89
2023/01/18 03:46:52;;;;;;;6.57;3.97;;;6.30;58.30;;;;;;5024936;28;20508;-88
2023/01/18 03:49:20;;;;;;;7.47;4.60;;;6.30;58.30;;;;;;5029397;28;20443;-89
2023/01/18 03:51:59;;;;;;;6.77;4.00;;;6.30;58.20;;;;;;5029708;28;20476;-89
2023/01/18 03:54:33;;;;;;;7.30;4.33;;;6.10;58.30;;;;;;5044834;28;20459;-89
2023/01/18 03:57:04;;;;;;;5.97;3.90;;;5.90;59.20;;;;;;5030897;28;20727;-88
2023/01/18 03:59:35;;;;;;;9.67;5.30;;;5.90;59.40;;;;;;5024714;28;20832;-89
2023/01/18 04:02:05;;;;;;;4.90;4.00;;;5.90;59.20;;;;;;5037027;28;20559;-89
2023/01/18 04:04:32;;;;;;;6.73;3.90;;;5.80;59.40;;;;;;5031216;28;20448;-89
2023/01/18 04:06:59;;;;;;;6.80;3.40;;;5.50;59.90;;;;;;5051317;28;20463;-88
2023/01/18 04:09:26;;;;;;;5.27;3.90;;;5.50;60.20;;;;;;5025907;28;20453;-89
2023/01/18 04:11:53;;;;;;;7.23;5.00;;;5.50;60.10;;;;;;5031528;28;20989;-87
2023/01/18 04:14:20;;;;;;;6.83;4.60;;;5.40;60.20;;;;;;5045123;28;20483;-89
2023/01/18 04:16:47;;;;;;;6.13;4.30;;;5.30;60.60;;;;;;5061439;28;20448;-89
2023/01/18 04:19:16;;;;;;;6.97;4.53;;;5.50;60.80;;;;;;5030754;28;20451;-89
2023/01/18 04:21:43;;;;;;;6.53;4.40;;;5.50;60.20;;;;;;5030583;28;20470;-89
2023/01/18 04:24:10;;;;;;;7.67;4.40;;;5.50;60.80;;;;;;5041989;28;20447;-89
2023/01/18 04:26:37;;;;;;;6.23;4.50;;;5.50;60.60;;;;;;5029608;28;21068;-89
2023/01/18 04:29:05;;;;;;;6.00;4.10;;;5.80;59.80;;;;;;5045473;28;20459;-89
2023/01/18 04:31:32;;;;;;;7.90;4.20;;;5.90;59.60;;;;;;5040709;28;20809;-90
2023/01/18 04:33:58;;;;;;;7.53;4.53;;;5.90;59.20;;;;;;5043633;28;20494;-89
2023/01/18 04:36:28;;;;;;;6.10;4.20;;;5.80;59.60;;;;;;5030223;28;20440;-90
2023/01/18 04:38:56;;;;;;;4.87;3.70;;;5.90;59.30;;;;;;5027198;28;20464;-88
2023/01/18 04:41:23;;;;;;;6.33;3.67;;;6.00;59.10;;;;;;5046863;28;20482;-90
2023/01/18 04:43:50;;;;;;;9.60;4.07;;;6.00;59.00;;;;;;5041657;28;20782;-87
2023/01/18 04:46:16;;;;;;;6.07;3.90;;;5.90;58.80;;;;;;5038932;28;20464;-88
2023/01/18 04:48:44;;;;;;;4.57;3.60;;;5.70;59.20;;;;;;5043990;28;20737;-87
2023/01/18 04:51:14;;;;;;;9.93;5.10;;;5.70;59.50;;;;;;5043827;28;20840;-89
2023/01/18 04:53:43;;;;;;;6.20;4.20;;;5.80;59.80;;;;;;5041091;28;20851;-89
2023/01/18 04:56:11;;;;;;;7.10;4.20;;;5.70;59.30;;;;;;5038304;28;20555;-90
2023/01/18 04:58:38;;;;;;;5.57;4.07;;;5.60;59.80;;;;;;5061387;28;20454;-87
2023/01/18 05:01:07;;;;;;;5.30;3.70;;;5.60;60.10;;;;;;5045407;28;20464;-89
2023/01/18 05:03:36;;;;;;;5.67;4.00;;;5.60;60.20;;;;;;5057850;28;21000;-89
2023/01/18 05:06:05;;;;;;;5.47;2.83;;;5.60;60.20;;;;;;5044713;28;20460;-90
2023/01/18 05:08:33;;;;;;;4.80;3.63;;;5.60;60.40;;;;;;5044216;28;20491;-89
2023/01/18 05:11:06;;;;;;;3.40;3.00;;;5.60;59.50;;;;;;5031066;28;21019;-89
2023/01/18 05:13:33;;;;;;;6.33;3.53;;;5.30;60.20;;;;;;5053976;28;20446;-89
2023/01/18 05:16:01;;;;;;;7.43;3.47;;;5.30;61.00;;;;;;5045685;28;20451;-89
2023/01/18 05:18:28;;;;;;;6.30;3.57;;;5.30;61.00;;;;;;5046467;28;20760;-89
2023/01/18 05:20:55;;;;;;;7.10;3.93;;;5.40;60.90;;;;;;5053575;28;20475;-88
2023/01/18 05:23:23;;;;;;;4.53;3.70;;;5.30;61.00;;;;;;5029811;28;20443;-88
2023/01/18 05:25:53;;;;;;;5.77;4.40;;;5.40;61.10;;;;;;5028011;28;20460;-89
2023/01/18 05:28:23;;;;;;;4.47;3.70;;;5.50;61.00;;;;;;5047130;28;20779;-88
2023/01/18 05:30:50;;;;;;;7.73;3.47;;;5.60;60.30;;;;;;5044029;28;20464;-89
2023/01/18 05:33:17;;;;;;;7.83;4.60;;;5.80;59.70;;;;;;5029909;28;20456;-89
2023/01/18 05:35:49;;;;;;;8.10;4.27;;;5.60;59.80;;;;;;5035145;28;20539;-89
2023/01/18 05:38:16;;;;;;;6.03;4.60;;;5.70;59.80;;;;;;5060746;28;20456;-89
2023/01/18 05:40:44;;;;;;;8.40;5.57;;;5.80;59.70;;;;;;5031638;28;20467;-88
2023/01/18 05:43:11;;;;;;;5.13;4.60;;;5.90;59.30;;;;;;5046597;28;20505;-91
2023/01/18 05:45:41;;;;;;;5.53;4.30;;;5.80;59.30;;;;;;5044944;28;20820;-91
2023/01/18 05:48:09;;;;;;;7.60;4.60;;;5.80;59.60;;;;;;5033711;28;20444;-90
2023/01/18 05:50:38;;;;;;;12.30;5.33;;;5.90;59.40;;;;;;5042283;28;20471;-87
2023/01/18 05:53:14;;;;;;;12.37;5.97;;;5.90;59.70;;;;;;5045988;28;20463;-89
2023/01/18 05:55:41;;;;;;;9.07;5.00;;;5.80;59.50;;;;;;5043428;28;20455;-88
2023/01/18 05:58:09;;;;;;;10.27;6.20;;;5.60;59.80;;;;;;5045559;28;20863;-88
2023/01/18 06:00:36;;;;;;;8.30;5.67;;;5.80;59.90;;;;;;5057790;28;20475;-88
2023/01/18 06:03:04;;;;;;;8.17;5.23;;;5.90;59.70;;;;;;5042732;28;20482;-90
2023/01/18 06:05:31;;;;;;;8.77;4.73;;;5.80;59.50;;;;;;5045346;28;20443;-90
2023/01/18 06:07:58;;;;;;;14.20;7.23;;;5.70;59.70;;;;;;5024391;28;20476;-88
2023/01/18 06:10:25;;;;;;;7.23;5.67;;;5.60;59.70;;;;;;5017567;28;20498;-88
2023/01/18 06:12:52;;;;;;;11.50;6.80;;;5.50;60.30;;;;;;5039978;28;20893;-89
2023/01/18 06:15:19;;;;;;;10.53;6.83;;;5.60;60.40;;;;;;5044380;28;20463;-90
2023/01/18 06:17:46;;;;;;;12.43;7.10;;;5.70;60.40;;;;;;5043047;28;20451;-88
2023/01/18 06:20:15;;;;;;;10.20;5.50;;;5.90;59.90;;;;;;5029954;28;20472;-88
2023/01/18 06:22:44;;;;;;;9.57;6.77;;;5.80;59.50;;;;;;5043869;28;20864;-89
2023/01/18 06:25:11;;;;;;;9.57;7.43;;;5.70;60.10;;;;;;5060362;28;20535;-88
2023/01/18 06:27:38;;;;;;;18.63;11.80;;;5.80;60.00;;;;;;5025214;28;20478;-88
2023/01/18 06:30:06;;;;;;;13.23;7.30;;;5.90;59.90;;;;;;5027806;28;20531;-88
2023/01/18 06:32:33;;;;;;;11.60;6.97;;;5.80;60.00;;;;;;5062503;28;20501;-89
2023/01/18 06:35:00;;;;;;;12.03;5.30;;;5.80;60.20;;;;;;5027510;28;20443;-89
2023/01/18 06:37:29;;;;;;;11.77;6.20;;;5.80;60.00;;;;;;5024721;28;20653;-89
2023/01/18 06:39:55;;;;;;;12.30;6.50;;;5.80;60.40;;;;;;5058655;28;20456;-89
2023/01/18 06:42:22;;;;;;;9.90;7.13;;;5.80;60.90;;;;;;5041640;28;20451;-89
2023/01/18 06:44:49;;;;;;;8.10;5.67;;;5.90;60.50;;;;;;5043959;28;20448;-89
2023/01/18 06:47:18;;;;;;;9.70;7.10;;;5.90;59.90;;;;;;5028290;28;20471;-90
2023/01/18 06:49:46;;;;;;;5.63;4.40;;;5.80;60.40;;;;;;5054887;28;20451;-89
2023/01/18 06:52:13;;;;;;;5.20;4.60;;;5.80;60.50;;;;;;5044930;28;20471;-89
2023/01/18 06:54:43;;;;;;;12.00;8.97;;;5.80;60.30;;;;;;5026338;28;20458;-90
2023/01/18 06:57:10;;;;;;;9.73;4.90;;;5.50;60.90;;;;;;5025372;28;21075;-88
2023/01/18 06:59:37;;;;;;;7.00;5.70;;;5.70;61.20;;;;;;5041284;28;20466;-89
2023/01/18 07:02:04;;;;;;;7.13;4.03;;;5.90;61.00;;;;;;5041859;28;20472;-89
2023/01/18 07:04:32;;;;;;;6.00;4.10;;;5.90;60.70;;;;;;5039264;28;20475;-90
2023/01/18 07:06:59;;;;;;;7.23;4.83;;;5.90;60.30;;;;;;5058222;28;20488;-90
2023/01/18 07:09:26;;;;;;;11.73;5.70;;;5.90;60.40;;;;;;5027529;28;20444;-89
2023/01/18 07:11:55;;;;;;;7.10;5.23;;;5.90;60.40;;;;;;5017733;28;20476;-89
2023/01/18 07:14:28;;;;;;;6.10;3.83;;;6.00;60.60;;;;;;5015653;28;20467;-89
2023/01/18 07:16:55;;;;;;;5.87;4.13;;;6.10;60.10;;;;;;5012835;28;20534;-89
2023/01/18 07:19:23;;;;;;;5.50;4.30;;;6.10;60.00;;;;;;5024322;28;20464;-89
2023/01/18 07:21:52;;;;;;;12.20;4.80;;;6.10;60.40;;;;;;5042141;28;20476;-89
2023/01/18 07:24:20;;;;;;;5.87;3.83;;;6.10;60.60;;;;;;5027147;28;20520;-90
2023/01/18 07:26:47;;;;;;;7.10;4.00;;;6.20;59.90;;;;;;5018101;28;20491;-89
2023/01/18 07:29:16;;;;;;;5.13;3.50;;;6.10;60.00;;;;;;5038355;28;20466;-89
2023/01/18 07:31:43;;;;;;;3.77;2.70;;;6.20;59.90;;;;;;5022831;28;20516;-89
2023/01/18 07:34:12;;;;;;;4.30;3.13;;;6.30;60.10;;;;;;5035884;28;20455;-90
2023/01/18 07:36:40;;;;;;;4.67;3.30;;;6.40;59.80;;;;;;5040118;28;20456;-90
2023/01/18 07:39:08;;;;;;;5.27;3.27;;;6.30;59.70;;;;;;5053248;28;20447;-89
2023/01/18 07:41:35;;;;;;;4.13;2.73;;;6.50;59.60;;;;;;5037624;28;20507;-89
2023/01/18 07:44:03;;;;;;;3.17;2.73;;;6.50;59.30;;;;;;5067139;28;20435;-90
2023/01/18 07:46:32;;;;;;;4.00;3.10;;;6.50;59.20;;;;;;5041671;28;20970;-90
2023/01/18 07:49:01;;;;;;;3.97;2.93;;;6.60;59.10;;;;;;5022670;28;20440;-90
2023/01/18 07:51:29;;;;;;;4.03;2.43;;;6.50;59.30;;;;;;5024736;28;20475;-88
2023/01/18 07:53:56;;;;;;;4.10;2.87;;;6.50;59.40;;;;;;5039849;28;22286;-89
2023/01/18 07:56:24;;;;;;;6.43;3.63;;;6.70;59.10;;;;;;5039096;28;20451;-89
2023/01/18 07:58:52;;;;;;;8.40;4.17;;;6.40;59.20;;;;;;5051438;28;20935;-89
2023/01/18 08:01:21;;;;;;;7.13;4.50;;;6.30;59.60;;;;;;5017977;28;20463;-89
2023/01/18 08:03:53;;;;;;;8.17;6.70;;;6.40;59.80;;;;;;5040285;28;20463;-90
2023/01/18 08:06:23;;;;;;;5.43;4.13;;;6.40;59.80;;;;;;5039480;28;20482;-89
2023/01/18 08:08:55;;;;;;;4.50;4.10;;;6.40;59.10;;;;;;5053784;28;20478;-89
2023/01/18 08:11:22;;;;;;;4.50;3.80;;;6.50;59.10;;;;;;5024395;28;20467;-89
2023/01/18 08:13:51;;;;;;;3.57;3.27;;;6.50;59.10;;;;;;5038996;28;20551;-88
2023/01/18 08:16:18;;;;;;;4.37;3.93;;;6.50;58.80;;;;;;5026047;28;20455;-89
2023/01/18 08:18:50;;;;;;;3.93;3.03;;;6.50;58.90;;;;;;5037464;28;21021;-88
2023/01/18 08:21:19;;;;;;;9.77;3.93;;;6.60;58.80;;;;;;5052555;28;20472;-89
2023/01/18 08:23:46;;;;;;;9.87;5.73;;;6.60;59.50;;;;;;5019591;28;20502;-89
2023/01/18 08:26:14;;;;;;;15.17;7.67;;;6.50;58.60;;;;;;5025626;28;20530;-88
2023/01/18 08:28:43;;;;;;;6.17;4.43;;;6.50;58.60;;;;;;5041040;28;20521;-88
2023/01/18 08:31:13;;;;;;;6.43;4.70;;;6.40;58.90;;;;;;5040397;28;20464;-88
2023/01/18 08:33:44;;;;;;;7.43;3.80;;;6.40;59.20;;;;;;5075268;28;20480;-88
2023/01/18 08:36:20;;;;;;;12.93;6.87;;;6.30;58.70;;;;;;5043039;28;20447;-89
2023/01/18 08:38:48;;;;;;;7.10;4.67;;;6.40;59.30;;;;;;5020188;28;20432;-88
2023/01/18 08:41:15;;;;;;;7.30;4.30;;;6.40;58.30;;;;;;5051253;28;20466;-88
2023/01/18 08:43:43;;;;;;;7.43;4.10;;;6.30;58.70;;;;;;5040470;28;20451;-88
2023/01/18 08:46:16;;;;;;;9.23;6.00;;;6.30;59.20;;;;;;5058114;28;20789;-90
2023/01/18 08:48:48;;;;;;;7.93;4.50;;;6.40;59.50;;;;;;5018730;28;20579;-89
2023/01/18 08:51:20;;;;;;;7.80;5.83;;;6.60;59.10;;;;;;5043124;28;20800;-89
2023/01/18 08:53:47;;;;;;;8.83;5.40;;;6.60;58.30;;;;;;5023624;28;20478;-88
2023/01/18 08:56:26;;;;;;;6.13;3.83;;;6.70;58.30;;;;;;5041962;28;20491;-89
2023/01/18 08:58:53;;;;;;;11.77;5.97;;;6.80;58.40;;;;;;5038871;28;20756;-87
2023/01/18 09:01:41;;;;;;;9.67;4.83;;;6.80;58.60;;;;;;5054848;28;20491;-89
2023/01/18 09:04:08;;;;;;;8.20;6.03;;;6.90;58.50;;;;;;5076537;28;20972;-89
2023/01/18 09:06:50;;;;;;;10.90;8.10;;;6.80;58.10;;;;;;5058603;28;20910;-89
2023/01/18 09:09:17;;;;;;;14.37;7.90;;;6.70;58.50;;;;;;5041576;28;20509;-88
2023/01/18 09:11:46;;;;;;;6.43;4.80;;;6.80;58.70;;;;;;5028164;28;20477;-88
2023/01/18 09:14:24;;;;;;;10.57;6.20;;;6.90;58.10;;;;;;5060538;28;20453;-89
2023/01/18 09:16:51;;;;;;;9.17;6.77;;;6.80;58.20;;;;;;5027460;28;20466;-89
2023/01/18 09:19:18;;;;;;;6.00;5.20;;;6.80;59.10;;;;;;5043517;28;20458;-88
2023/01/18 09:21:45;;;;;;;7.63;4.97;;;6.80;57.90;;;;;;5021610;28;20470;-91
2023/01/18 09:24:13;;;;;;;10.40;5.97;;;6.80;58.30;;;;;;5045151;28;20768;-89
2023/01/18 09:26:40;;;;;;;7.70;5.50;;;6.80;59.10;;;;;;5038891;28;20451;-88
2023/01/18 09:29:07;;;;;;;7.13;4.60;;;6.70;58.80;;;;;;5043001;28;20590;-90
2023/01/18 09:31:35;;;;;;;11.97;5.20;;;6.80;58.50;;;;;;5046434;28;20474;-88
2023/01/18 09:34:02;;;;;;;11.07;8.30;;;6.90;58.40;;;;;;5058900;28;20455;-89
2023/01/18 09:36:29;;;;;;;8.93;5.87;;;6.80;58.50;;;;;;5046206;28;20443;-89
2023/01/18 09:38:56;;;;;;;8.33;4.43;;;6.90;58.30;;;;;;5026207;28;20813;-89
2023/01/18 09:41:32;;;;;;;8.73;5.30;;;6.90;58.50;;;;;;5026980;28;20468;-88
2023/01/18 09:44:02;;;;;;;7.23;4.90;;;6.80;58.60;;;;;;5045415;28;20825;-89
2023/01/18 09:46:34;;;;;;;5.83;4.10;;;6.90;58.80;;;;;;5045555;28;21023;-90
2023/01/18 09:49:03;;;;;;;5.20;3.90;;;6.90;58.80;;;;;;5044199;28;21124;-91
2023/01/18 09:51:32;;;;;;;4.17;3.40;;;6.90;58.50;;;;;;5039936;28;20521;-90
2023/01/18 09:54:09;;;;;;;10.23;3.77;;;6.80;58.80;;;;;;5059753;28;21472;-90
2023/01/18 09:56:44;;;;;;;11.30;5.17;;;6.70;59.10;;;;;;5029632;28;20490;-90
2023/01/18 09:59:21;;;;;;;6.80;4.83;;;6.70;58.90;;;;;;5023187;28;20447;-90
2023/01/18 10:01:49;;;;;;;9.80;4.70;;;6.60;59.30;;;;;;5043448;28;20478;-89
2023/01/18 10:04:21;;;;;;;10.10;4.90;;;6.70;59.40;;;;;;5027826;28;20452;-90
2023/01/18 10:06:51;;;;;;;5.07;4.00;;;6.70;59.60;;;;;;5047126;28;20451;-89
2023/01/18 10:09:25;;;;;;;7.70;4.07;;;6.80;59.20;;;;;;5039603;28;20467;-89
2023/01/18 10:11:58;;;;;;;5.10;3.40;;;6.80;59.30;;;;;;5043775;28;20475;-88
2023/01/18 10:14:40;;;;;;;10.87;5.47;;;6.70;59.60;;;;;;5049446;28;20479;-88
2023/01/18 10:17:12;;;;;;;9.07;4.80;;;6.80;59.70;;;;;;5033161;28;20466;-89
2023/01/18 10:19:39;;;;;;;9.23;5.63;;;7.00;59.10;;;;;;5039167;28;20459;-88
2023/01/18 10:22:14;;;;;;;9.70;7.10;;;7.00;59.00;;;;;;5059930;28;20477;-88
2023/01/18 10:24:48;;;;;;;6.70;4.57;;;6.80;59.10;;;;;;5050486;28;20523;-88
2023/01/18 10:27:40;;;;;;;4.53;3.80;;;6.70;59.60;;;;;;5051499;28;20902;-88
2023/01/18 10:30:32;;;;;;;6.07;4.57;;;6.70;59.80;;;;;;5052738;28;20441;-88
2023/01/18 10:33:02;;;;;;;7.83;4.50;;;6.60;59.90;;;;;;5050813;28;20458;-87
2023/01/18 10:35:33;;;;;;;5.80;4.30;;;6.70;60.30;;;;;;5049972;28;20880;-88
2023/01/18 10:38:04;;;;;;;5.13;3.80;;;6.80;60.00;;;;;;5027401;28;20436;-87
2023/01/18 10:40:32;;;;;;;8.47;5.07;;;6.70;60.30;;;;;;5039282;28;20468;-89
2023/01/18 10:43:03;;;;;;;5.27;4.27;;;6.60;60.10;;;;;;5045524;28;20455;-86
2023/01/18 10:45:32;;;;;;;7.77;4.20;;;6.80;60.40;;;;;;5046296;28;20539;-87
2023/01/18 10:48:18;;;;;;;5.80;3.80;;;6.80;60.30;;;;;;5040434;28;20486;-88
2023/01/18 10:50:47;;;;;;;5.90;3.93;;;6.90;60.30;;;;;;5060650;28;20464;-87
2023/01/18 10:53:25;;;;;;;5.43;4.00;;;7.00;59.90;;;;;;5026509;28;20452;-88
2023/01/18 10:55:55;;;;;;;6.57;3.73;;;6.90;59.70;;;;;;5024547;28;20490;-89
2023/01/18 10:58:30;;;;;;;7.97;4.70;;;7.00;60.10;;;;;;5063415;28;20467;-87
2023/01/18 11:00:59;;;;;;;5.73;4.13;;;7.10;59.40;;;;;;5061794;28;20975;-89
2023/01/18 11:03:27;;;;;;;5.90;4.57;;;7.30;59.50;;;;;;5054574;28;20854;-88
2023/01/18 11:06:03;;;;;;;7.30;4.63;;;7.40;59.10;;;;;;5045210;28;20466;-89
2023/01/18 11:08:32;;;;;;;8.60;4.83;;;7.30;58.90;;;;;;5063400;28;20463;-89
2023/01/18 11:11:01;;;;;;;6.80;3.93;;;7.00;59.20;;;;;;5043134;28;20480;-87
2023/01/18 11:13:33;;;;;;;7.47;4.57;;;7.10;59.70;;;;;;5048280;28;20460;-90
2023/01/18 11:16:05;;;;;;;6.67;4.17;;;7.20;59.60;;;;;;5062423;28;20454;-86
2023/01/18 11:18:32;;;;;;;7.70;3.57;;;7.20;59.80;;;;;;5064987;28;20458;-87
2023/01/18 11:20:59;;;;;;;7.47;4.70;;;7.20;60.10;;;;;;5031033;28;20467;-87
2023/01/18 11:23:34;;;;;;;6.67;4.97;;;7.30;59.10;;;;;;5032298;28;20451;-87
2023/01/18 11:26:04;;;;;;;10.87;5.83;;;7.10;59.70;;;;;;5027774;28;20443;-87
2023/01/18 11:28:38;;;;;;;8.20;4.40;;;7.20;59.90;;;;;;5064107;28;20452;-89
2023/01/18 11:31:13;;;;;;;14.87;7.87;;;7.20;60.00;;;;;;5034472;28;20562;-88
2023/01/18 11:33:49;;;;;;;5.63;4.23;;;7.20;59.80;;;;;;5032814;28;20447;-87
2023/01/18 11:36:18;;;;;;;7.40;5.20;;;7.20;60.40;;;;;;5049771;28;20459;-88
2023/01/18 11:38:45;;;;;;;9.23;5.10;;;6.90;60.60;;;;;;5063154;28;20519;-87
2023/01/18 11:41:18;;;;;;;10.53;4.90;;;7.10;61.30;;;;;;5063138;28;20476;-88
2023/01/18 11:44:01;;;;;;;7.20;4.60;;;7.00;61.50;;;;;;5045612;28;20448;-87
2023/01/18 11:46:38;;;;;;;9.13;5.40;;;6.90;61.80;;;;;;5031063;28;20575;-88
2023/01/18 11:49:21;;;;;;;9.80;5.97;;;7.00;61.70;;;;;;5025070;28;20522;-89
2023/01/18 11:51:51;;;;;;;7.23;5.07;;;7.10;61.70;;;;;;5047076;28;20461;-87
2023/01/18 11:54:27;;;;;;;11.10;8.30;;;7.30;61.60;;;;;;5048896;28;21195;-88
2023/01/18 11:56:58;;;;;;;44.10;25.87;;;7.40;61.20;;;;;;5030118;28;20504;-87
2023/01/18 11:59:29;;;;;;;18.93;12.20;;;7.30;61.00;;;;;;5048523;28;20451;-88
2023/01/18 12:02:29;;;;;;;15.70;9.13;;;7.30;60.90;;;;;;5042657;28;20509;-87
2023/01/18 12:05:31;;;;;;;19.43;11.77;;;7.30;61.30;;;;;;5021068;28;21139;-88
2023/01/18 12:08:10;;;;;;;21.03;13.20;;;7.20;61.50;;;;;;5026832;28;20467;-88
2023/01/18 12:10:47;;;;;;;10.27;6.80;;;7.50;61.00;;;;;;5043724;28;20564;-88
2023/01/18 12:13:32;;;;;;;8.03;4.67;;;7.40;60.30;;;;;;5030350;28;20960;-87
2023/01/18 12:16:08;;;;;;;10.87;6.40;;;7.40;60.00;;;;;;5040824;28;20456;-88
2023/01/18 12:19:05;;;;;;;13.50;7.67;;;7.50;60.70;;;;;;5045806;28;20968;-88
2023/01/18 12:21:43;;;;;;;14.23;7.77;;;7.50;60.80;;;;;;5060523;28;20471;-88
2023/01/18 12:24:21;;;;;;;50.47;22.53;;;7.60;60.30;;;;;;5047168;28;20489;-87
2023/01/18 12:26:53;;;;;;;15.93;10.03;;;7.70;60.00;;;;;;5026011;28;21067;-87
2023/01/18 12:29:47;;;;;;;20.37;11.03;;;7.50;59.90;;;;;;5030847;28;20491;-87
2023/01/18 12:32:29;;;;;;;35.43;18.60;;;7.40;60.30;;;;;;5046545;28;20498;-88
2023/01/18 12:35:14;;;;;;;25.27;13.73;;;7.30;60.40;;;;;;5042365;28;20448;-86
2023/01/18 12:37:51;;;;;;;15.30;8.57;;;7.20;61.10;;;;;;5045673;28;20463;-86
2023/01/18 12:40:40;;;;;;;23.07;11.90;;;7.10;60.50;;;;;;5036160;28;20908;-86
2023/01/18 12:43:20;;;;;;;47.37;20.33;;;7.10;61.50;;;;;;5072708;28;20455;-88
2023/01/18 12:45:52;;;;;;;18.03;12.47;;;7.40;61.30;;;;;;5038642;28;20801;-88
2023/01/18 12:48:25;;;;;;;21.47;12.07;;;7.30;59.70;;;;;;5039822;28;21152;-87
2023/01/18 12:50:55;;;;;;;20.03;11.43;;;7.20;60.20;;;;;;5040480;28;21022;-87
2023/01/18 12:53:34;;;;;;;27.97;15.60;;;7.10;60.50;;;;;;5039450;28;20965;-87
2023/01/18 12:56:10;;;;;;;23.03;12.03;;;7.10;59.60;;;;;;5012180;28;20488;-89
2023/01/18 12:58:37;;;;;;;21.10;8.60;;;7.00;60.10;;;;;;5041720;28;20443;-88
2023/01/18 13:01:07;;;;;;;28.73;12.43;;;6.80;60.00;;;;;;5053490;28;20475;-86
2023/01/18 13:03:41;;;;;;;17.90;10.00;;;6.50;60.40;;;;;;5038455;28;20464;-86
2023/01/18 13:06:10;;;;;;;22.27;10.43;;;6.40;61.40;;;;;;5075305;28;20946;-87
2023/01/18 13:08:40;;;;;;;18.90;10.00;;;6.40;61.50;;;;;;5058200;28;20578;-87
2023/01/18 13:11:11;;;;;;;17.00;8.60;;;6.40;61.50;;;;;;5052886;28;20562;-86
2023/01/18 13:13:40;;;;;;;18.90;10.93;;;6.40;60.90;;;;;;5039392;28;20443;-87
2023/01/18 13:16:19;;;;;;;11.97;8.27;;;6.50;61.00;;;;;;5038801;28;20453;-88
2023/01/18 13:18:55;;;;;;;23.23;9.20;;;6.60;61.00;;;;;;5041401;28;20433;-88
2023/01/18 13:21:34;;;;;;;17.23;8.80;;;6.70;59.40;;;;;;5036710;28;20467;-87
2023/01/18 13:24:15;;;;;;;13.73;8.30;;;6.80;59.80;;;;;;5033175;28;20813;-87
2023/01/18 13:26:42;;;;;;;23.70;16.73;;;6.70;59.60;;;;;;5021333;28;20443;-88
2023/01/18 13:29:22;;;;;;;15.70;8.33;;;6.80;59.40;;;;;;5037501;28;20860;-88
2023/01/18 13:31:50;;;;;;;12.70;7.47;;;6.70;59.80;;;;;;5040400;28;20849;-88
2023/01/18 13:34:30;;;;;;;9.57;5.33;;;6.70;59.30;;;;;;5024554;28;20467;-87
2023/01/18 13:36:58;;;;;;;11.73;6.83;;;6.70;59.40;;;;;;5037756;28;20444;-87
2023/01/18 13:39:27;;;;;;;11.37;6.20;;;6.70;59.20;;;;;;5056019;28;20576;-87
2023/01/18 13:42:21;;;;;;;18.73;6.60;;;6.80;58.80;;;;;;5054514;28;21011;-87
2023/01/18 13:45:05;;;;;;;8.50;5.77;;;6.70;58.90;;;;;;5038653;28;20457;-87